Bookmark and Share
Track history (hours):
 

Challenge Plus

Last reported at 2014-Apr-13 13:30 UTC. Time now 2014-Apr-24 02:27 UTC.
Position N 01°12' E 103°52'.
Warning: this ship's position is 10 days out of date.

Length 179 m; draft 11.2 m.

Type: Ship. MMSI: 565267000.

NotesDate/timePositionNaut miles runAvg speedWind from/ knotsBaromVisibWave heightAir tempDewpointWater temp
2014-Apr-13 13:30N 01°12' E 103°52'6 5.6
2014-Apr-13 12:27N 01°14' E 103°47'6 6.2
2014-Apr-13 11:33N 01°15' E 103°41'0 0.1
2014-Apr-13 07:30N 01°16' E 103°41'0 0.0
2014-Apr-13 05:12N 01°16' E 103°41'0 0.0
2014-Apr-13 01:06N 01°16' E 103°41'0 0.0
2014-Apr-12 23:30N 01°16' E 103°41'0 0.0
2014-Apr-12 22:30N 01°16' E 103°41'0 0.0
2014-Apr-12 20:06N 01°16' E 103°41'0 0.0
2014-Apr-12 19:03N 01°16' E 103°41'0 0.0
2014-Apr-12 18:03N 01°16' E 103°41'0 0.0
2014-Apr-12 16:24N 01°16' E 103°41'0 0.4
2014-Apr-12 15:28N 01°16' E 103°41'5 5.4
2014-Apr-12 14:34N 01°15' E 103°46'3 2.7
2014-Apr-12 13:32N 01°14' E 103°48'0 0.1
2014-Apr-12 12:20N 01°14' E 103°48'0 0.0
2014-Apr-12 11:29N 01°14' E 103°48'0 0.0
2014-Apr-12 10:26N 01°14' E 103°48'0 0.1
2014-Apr-12 09:23N 01°13' E 103°48'0 0.1
2014-Apr-12 08:23N 01°13' E 103°49'0 0.1
2014-Apr-12 07:17N 01°13' E 103°49'0 0.1
2014-Apr-12 06:29N 01°13' E 103°49'0 0.1
2014-Apr-12 05:32N 01°13' E 103°49'0 0.0
2014-Apr-12 04:23N 01°13' E 103°49'0 0.0
2014-Apr-12 03:26N 01°14' E 103°49'0 0.0
2014-Apr-12 02:29N 01°14' E 103°49'0 0.1
2014-Apr-12 01:29N 01°14' E 103°49'0 0.0
2014-Apr-12 00:26N 01°14' E 103°49'0 0.0
2014-Apr-11 23:32N 01°14' E 103°49'0 0.1
2014-Apr-11 22:32N 01°14' E 103°48'0 0.1
2014-Apr-11 21:32N 01°14' E 103°48'0 0.0
2014-Apr-11 20:32N 01°14' E 103°48'0 0.0
2014-Apr-11 19:32N 01°14' E 103°48'0 0.0
2014-Apr-11 18:32N 01°14' E 103°48'0 0.1
2014-Apr-11 17:20N 01°14' E 103°49'0 0.1
2014-Apr-11 16:32N 01°13' E 103°49'0 0.1
2014-Apr-11 15:26N 01°13' E 103°49'0 0.1
2014-Apr-11 14:32N 01°13' E 103°48'0 0.1
2014-Apr-11 13:29N 01°14' E 103°48'0 0.0
2014-Apr-11 12:32N 01°14' E 103°48'0 0.1
2014-Apr-11 11:23N 01°14' E 103°48'0 0.0
2014-Apr-11 10:32N 01°14' E 103°48'0 0.1
2014-Apr-11 09:26N 01°13' E 103°48'0 0.2
2014-Apr-11 08:26N 01°14' E 103°49'0 0.0
2014-Apr-11 07:32N 01°13' E 103°49'0 0.0
2014-Apr-11 06:23N 01°13' E 103°49'0 0.0
2014-Apr-11 05:29N 01°13' E 103°49'0 0.0
2014-Apr-11 04:32N 01°14' E 103°49'0 0.0
2014-Apr-11 03:32N 01°14' E 103°49'0 0.1
2014-Apr-11 02:32N 01°13' E 103°48'0 0.0
2014-Apr-11 01:20N 01°13' E 103°48'0 0.1
2014-Apr-11 00:17N 01°14' E 103°48'0 0.1
2014-Apr-10 23:23N 01°14' E 103°48'0 0.0
2014-Apr-10 22:26N 01°14' E 103°48'0 0.1
2014-Apr-10 21:26N 01°14' E 103°48'0 0.0
2014-Apr-10 20:32N 01°14' E 103°48'0 0.1
2014-Apr-10 19:29N 01°13' E 103°48'0 0.1
2014-Apr-10 18:26N 01°14' E 103°48'0 0.1
2014-Apr-10 17:33N 01°14' E 103°48'3 3.3
2014-Apr-10 16:33N 01°15' E 103°45'8 7.9
2014-Apr-10 15:33N 01°12' E 103°38'6 6.2
2014-Apr-10 14:32N 01°12' E 103°32'6 5.6
2014-Apr-10 13:29N 01°11' E 103°26'  
2014-Apr-08 07:30N 01°14' E 103°26'1314.2
2014-Apr-08 06:34N 01°11' E 103°40'1110.7
2014-Apr-08 05:33N 01°11' E 103°50'1310.8
2014-Apr-08 04:23N 01°16' E 104°02'  

Dump ship's entire track history

sailing weather and tide predictions

Challenge Plus — 9VJH7 — position and weather